Time;durP1;ratioP1;P1;durP2;ratioP2;P2;SDS_P1;SDS_P2;PMS_P1;PMS_P2;Temp;Humidity;BMP_temperature;BMP_pressure;BME280_temperature;BME280_humidity;BME280_pressure;Samples;Min_cycle;Max_cycle;Signal;HPM_P1;HPM_P2
2023/04/09 00:04:10;;;;;;;8.00;7.30;;;22.10;53.20;;;;;;222634;1257;25208;-61
2023/04/09 00:09:15;;;;;;;8.80;8.00;;;22.10;53.30;;;;;;222619;1263;22511;-58
2023/04/09 00:14:19;;;;;;;8.50;7.70;;;22.00;53.20;;;;;;222625;1263;24236;-62
2023/04/09 00:19:23;;;;;;;8.30;7.60;;;22.00;53.20;;;;;;222593;1254;22564;-61
2023/04/09 00:24:27;;;;;;;8.30;7.50;;;21.90;53.20;;;;;;222644;1257;22814;-58
2023/04/09 00:29:32;;;;;;;8.60;7.70;;;21.90;53.30;;;;;;222589;1255;24353;-60
2023/04/09 00:34:37;;;;;;;9.40;8.40;;;21.90;53.60;;;;;;222610;1263;22797;-59
2023/04/09 00:39:41;;;;;;;8.40;7.70;;;21.80;53.40;;;;;;222470;1262;22523;-61
2023/04/09 00:44:45;;;;;;;8.40;7.60;;;21.80;53.80;;;;;;222364;1254;24211;-61
2023/04/09 00:49:50;;;;;;;8.30;7.50;;;22.00;52.90;;;;;;222351;1254;22606;-62
2023/04/09 00:54:58;;;;;;;8.20;7.40;;;22.50;52.00;;;;;;222398;1254;22899;-64
2023/04/09 01:00:03;;;;;;;8.50;7.60;;;22.70;51.50;;;;;;222469;1253;22551;-59
2023/04/09 01:05:08;;;;;;;8.90;8.10;;;22.90;51.70;;;;;;222337;1254;22618;-58
2023/04/09 01:10:42;;;;;;;7.80;7.10;;;23.00;51.10;;;;;;222182;1263;23287;-60
2023/04/09 01:15:55;;;;;;;8.00;7.30;;;23.10;50.50;;;;;;222393;1260;22581;-57
2023/04/09 01:21:05;;;;;;;8.70;7.90;;;23.20;50.60;;;;;;222292;1264;22518;-58
2023/04/09 01:26:24;;;;;;;7.50;6.80;;;23.20;50.20;;;;;;222476;1254;25322;-58
2023/04/09 01:31:37;;;;;;;8.20;7.40;;;23.40;50.10;;;;;;222441;1254;23887;-57
2023/04/09 01:36:43;;;;;;;8.00;7.30;;;23.40;49.90;;;;;;222533;1263;23124;-59
2023/04/09 01:41:49;;;;;;;7.80;7.10;;;23.40;50.20;;;;;;222055;1256;22537;-58
2023/04/09 01:46:55;;;;;;;7.50;6.90;;;23.40;50.20;;;;;;222479;1261;22608;-58
2023/04/09 01:51:59;;;;;;;8.20;7.40;;;23.40;49.90;;;;;;222450;1255;22640;-59
2023/04/09 01:57:03;;;;;;;7.70;7.00;;;23.50;50.10;;;;;;222613;1254;22765;-61
2023/04/09 02:02:14;;;;;;;7.70;7.00;;;23.50;49.70;;;;;;222272;1254;22599;-58
2023/04/09 02:07:36;;;;;;;7.20;6.60;;;23.60;49.60;;;;;;222455;1254;24369;-59
2023/04/09 02:12:47;;;;;;;7.20;6.60;;;23.70;49.40;;;;;;222472;1263;22523;-59
2023/04/09 02:17:51;;;;;;;7.10;6.50;;;23.70;49.90;;;;;;222311;1256;24220;-59
2023/04/09 02:22:55;;;;;;;7.50;6.80;;;23.60;49.60;;;;;;222465;1254;22638;-59
2023/04/09 02:27:59;;;;;;;8.40;7.70;;;23.50;49.80;;;;;;222398;1254;22598;-59
2023/04/09 02:33:03;;;;;;;8.00;7.20;;;23.40;49.90;;;;;;222538;1266;22523;-63
2023/04/09 02:38:12;;;;;;;8.10;7.40;;;23.30;50.10;;;;;;222502;1262;23022;-58
2023/04/09 02:43:16;;;;;;;7.90;7.10;;;23.30;50.10;;;;;;222431;1265;22627;-55
2023/04/09 02:48:21;;;;;;;7.50;6.90;;;23.10;49.90;;;;;;222679;1268;24252;-60
2023/04/09 02:53:25;;;;;;;8.20;7.50;;;22.90;50.70;;;;;;222581;1262;22937;-59
2023/04/09 02:58:29;;;;;;;7.70;7.00;;;22.80;51.10;;;;;;222243;1254;24248;-57
2023/04/09 03:03:33;;;;;;;8.20;7.60;;;22.70;51.10;;;;;;222341;1255;22507;-54
2023/04/09 03:08:37;;;;;;;8.00;7.20;;;22.70;52.00;;;;;;222433;1266;22989;-55
2023/04/09 03:13:41;;;;;;;7.70;7.00;;;22.50;51.90;;;;;;222347;1256;24488;-56
2023/04/09 03:18:45;;;;;;;7.80;7.20;;;22.60;51.60;;;;;;222236;1267;22518;-56
2023/04/09 03:23:49;;;;;;;9.10;8.30;;;22.50;52.10;;;;;;222263;1255;22612;-55
2023/04/09 03:28:53;;;;;;;7.60;7.00;;;22.60;51.80;;;;;;222455;1254;22637;-56
2023/04/09 03:33:58;;;;;;;7.40;6.80;;;22.50;51.50;;;;;;222424;1253;22753;-55
2023/04/09 03:39:04;;;;;;;7.80;7.10;;;22.50;51.60;;;;;;222410;1267;26035;-58
2023/04/09 03:44:14;;;;;;;8.20;7.40;;;22.40;52.10;;;;;;222410;1269;24193;-57
2023/04/09 03:49:30;;;;;;;8.30;7.60;;;22.30;51.80;;;;;;222692;1253;22523;-60
2023/04/09 03:54:42;;;;;;;8.10;7.40;;;22.30;51.90;;;;;;222672;1263;22706;-57
2023/04/09 03:59:52;;;;;;;7.90;7.30;;;22.20;52.00;;;;;;222279;1269;22561;-56
2023/04/09 04:04:59;;;;;;;8.10;7.40;;;22.10;52.10;;;;;;222676;1265;22505;-55
2023/04/09 04:10:07;;;;;;;7.60;7.00;;;22.10;52.20;;;;;;222606;1269;25228;-57
2023/04/09 04:15:12;;;;;;;8.40;7.60;;;22.00;52.40;;;;;;222533;1255;22527;-57
2023/04/09 04:20:20;;;;;;;8.20;7.50;;;22.00;51.90;;;;;;222746;1265;22634;-61
2023/04/09 04:25:41;;;;;;;8.20;7.50;;;21.90;52.80;;;;;;222542;1265;24186;-56
2023/04/09 04:30:47;;;;;;;8.30;7.60;;;21.90;52.40;;;;;;222560;1254;24044;-58
2023/04/09 04:35:51;;;;;;;8.80;8.00;;;21.90;52.50;;;;;;222384;1255;22725;-58
2023/04/09 04:41:16;;;;;;;8.50;7.70;;;21.80;52.50;;;;;;222712;1255;22596;-62
2023/04/09 04:46:26;;;;;;;8.80;7.90;;;21.80;52.60;;;;;;222498;1255;22510;-59
2023/04/09 04:51:31;;;;;;;8.40;7.60;;;22.10;52.00;;;;;;222332;1247;22564;-56
2023/04/09 04:56:38;;;;;;;8.90;8.00;;;22.40;51.30;;;;;;222386;1269;24324;-57
2023/04/09 05:01:50;;;;;;;8.40;7.60;;;22.60;50.80;;;;;;222403;1262;23962;-60
2023/04/09 05:06:55;;;;;;;7.80;7.10;;;22.90;50.40;;;;;;222248;1256;22508;-56
2023/04/09 05:12:00;;;;;;;8.10;7.40;;;23.00;50.00;;;;;;222234;1255;22628;-55
2023/04/09 05:17:05;;;;;;;8.20;7.40;;;23.00;50.20;;;;;;222447;1254;22507;-59
2023/04/09 05:22:17;;;;;;;;;;;23.10;49.80;;;;;;222152;1255;24321;-58
2023/04/09 05:27:23;;;;;;;7.90;7.20;;;23.10;49.60;;;;;;222375;1253;25319;-59
2023/04/09 05:32:31;;;;;;;8.00;7.40;;;23.10;49.70;;;;;;222257;1269;23602;-58
2023/04/09 05:37:35;;;;;;;8.10;7.40;;;23.20;49.70;;;;;;222514;1254;25380;-56
2023/04/09 05:42:40;;;;;;;7.70;7.00;;;23.30;49.60;;;;;;222538;1265;22539;-55
2023/04/09 05:47:53;;;;;;;7.40;6.80;;;23.30;49.60;;;;;;222341;1269;22513;-57
2023/04/09 05:52:58;;;;;;;7.80;7.10;;;23.30;49.50;;;;;;222548;1253;25220;-58
2023/04/09 05:58:09;;;;;;;8.10;7.40;;;23.40;49.50;;;;;;222626;1253;25316;-56
2023/04/09 06:03:13;;;;;;;7.30;6.60;;;23.40;49.30;;;;;;222585;1260;23880;-57
2023/04/09 06:08:17;;;;;;;8.00;7.10;;;23.40;49.20;;;;;;222478;1262;22650;-61
2023/04/09 06:13:21;;;;;;;7.80;7.00;;;23.40;49.60;;;;;;222545;1256;24225;-59
2023/04/09 06:18:26;;;;;;;7.50;6.90;;;23.60;49.20;;;;;;222491;1269;24039;-57
2023/04/09 06:23:32;;;;;;;7.70;7.00;;;23.50;49.20;;;;;;222569;1254;22627;-57
2023/04/09 06:28:36;;;;;;;7.60;7.00;;;23.60;49.50;;;;;;222277;1262;283310;-55
2023/04/09 06:33:40;;;;;;;7.10;6.50;;;23.60;49.10;;;;;;222540;1255;25282;-55
2023/04/09 06:38:44;;;;;;;7.10;6.50;;;23.50;49.30;;;;;;222571;1256;22535;-57
2023/04/09 06:43:49;;;;;;;7.50;6.90;;;23.50;49.50;;;;;;222509;1254;22508;-59
2023/04/09 06:48:54;;;;;;;7.20;6.60;;;23.40;49.80;;;;;;222575;1255;23239;-59
2023/04/09 06:53:58;;;;;;;7.00;6.50;;;23.30;49.90;;;;;;222605;1255;25332;-56
2023/04/09 06:59:02;;;;;;;7.40;6.80;;;23.10;50.00;;;;;;222683;1269;22518;-58
2023/04/09 07:04:06;;;;;;;7.20;6.70;;;23.00;50.60;;;;;;222491;1265;24267;-57
2023/04/09 07:09:11;;;;;;;6.80;6.30;;;22.90;50.60;;;;;;222341;1255;22505;-58
2023/04/09 07:14:15;;;;;;;8.10;7.40;;;22.90;50.70;;;;;;222343;1267;22517;-56
2023/04/09 07:19:19;;;;;;;7.70;7.10;;;22.80;50.80;;;;;;222321;1255;22606;-55
2023/04/09 07:24:23;;;;;;;7.50;6.80;;;22.70;50.90;;;;;;222451;1262;24186;-57
2023/04/09 07:29:27;;;;;;;7.10;6.60;;;22.70;51.00;;;;;;222370;1255;26608;-57
2023/04/09 07:34:32;;;;;;;7.70;7.10;;;22.70;51.00;;;;;;222356;1262;22641;-56
2023/04/09 07:39:36;;;;;;;7.40;6.80;;;22.60;51.40;;;;;;222409;1269;22555;-60
2023/04/09 07:44:40;;;;;;;8.20;7.50;;;22.60;51.40;;;;;;222590;1269;22779;-60
2023/04/09 07:49:44;;;;;;;7.00;6.40;;;22.60;51.10;;;;;;222543;1263;22619;-58
2023/04/09 07:54:48;;;;;;;7.90;7.20;;;22.60;51.20;;;;;;222260;1257;22625;-61
2023/04/09 07:59:54;;;;;;;7.60;7.00;;;22.50;51.30;;;;;;222518;1254;24227;-55
2023/04/09 08:04:58;;;;;;;8.00;7.30;;;22.50;51.40;;;;;;222613;1256;23907;-58
2023/04/09 08:10:04;;;;;;;7.90;7.20;;;22.40;51.50;;;;;;222176;1256;24178;-60
2023/04/09 08:15:09;;;;;;;7.70;7.10;;;22.30;51.60;;;;;;222609;1262;26605;-58
2023/04/09 08:20:15;;;;;;;7.50;6.90;;;22.30;51.60;;;;;;222540;1269;24402;-60
2023/04/09 08:25:21;;;;;;;7.40;6.80;;;22.20;51.70;;;;;;222463;1258;24213;-56
2023/04/09 08:30:24;;;;;;;7.50;6.80;;;22.20;51.80;;;;;;222275;1255;24481;-57
2023/04/09 08:35:32;;;;;;;7.60;6.90;;;22.10;51.90;;;;;;222443;1253;22662;-59
2023/04/09 08:40:38;;;;;;;7.00;6.40;;;22.10;52.00;;;;;;222297;1255;22686;-60
2023/04/09 08:45:42;;;;;;;7.90;7.30;;;22.00;52.00;;;;;;222476;1265;24233;-58
2023/04/09 08:50:46;;;;;;;7.70;7.00;;;22.00;52.10;;;;;;222610;1266;25326;-58
2023/04/09 08:55:50;;;;;;;8.00;7.30;;;22.00;52.20;;;;;;222517;1261;22577;-56
2023/04/09 09:00:54;;;;;;;8.50;7.70;;;21.90;52.50;;;;;;222491;1267;22491;-60
2023/04/09 09:05:58;;;;;;;8.00;7.20;;;21.90;52.10;;;;;;222356;1265;24248;-60
2023/04/09 09:11:03;;;;;;;8.10;7.40;;;21.90;52.30;;;;;;222289;1269;22877;-57
2023/04/09 09:16:15;;;;;;;7.70;7.10;;;21.90;52.20;;;;;;222484;1256;23916;-59
2023/04/09 09:21:19;;;;;;;8.10;7.30;;;21.90;52.20;;;;;;222410;1257;24183;-60
2023/04/09 09:26:28;;;;;;;7.70;7.10;;;22.10;51.80;;;;;;222272;1255;22648;-59
2023/04/09 09:31:46;;;;;;;6.80;6.30;;;22.50;51.00;;;;;;222380;1268;22584;-57
2023/04/09 09:36:50;;;;;;;7.00;6.50;;;22.70;50.60;;;;;;222353;1269;24205;-58
2023/04/09 09:42:07;;;;;;;7.10;6.50;;;22.90;50.20;;;;;;222478;1268;22781;-56
2023/04/09 09:47:14;;;;;;;7.40;6.80;;;23.00;49.80;;;;;;222257;1265;22622;-57
2023/04/09 09:52:25;;;;;;;7.90;7.20;;;23.10;50.40;;;;;;222161;1265;25249;-55
2023/04/09 09:57:31;;;;;;;6.80;6.20;;;23.10;49.70;;;;;;222474;1257;22656;-55
2023/04/09 10:02:46;;;;;;;7.00;6.40;;;23.20;49.90;;;;;;222527;1269;22695;-55
2023/04/09 10:07:50;;;;;;;6.70;6.20;;;23.20;49.40;;;;;;222375;1269;22510;-59
2023/04/09 10:12:55;;;;;;;7.00;6.40;;;23.30;49.30;;;;;;222253;1256;22589;-59
2023/04/09 10:18:00;;;;;;;7.10;6.50;;;23.40;49.70;;;;;;222537;1263;23894;-57
2023/04/09 10:23:12;;;;;;;6.90;6.30;;;23.40;49.20;;;;;;222429;1254;22527;-58
2023/04/09 10:28:17;;;;;;;7.30;6.70;;;23.40;49.10;;;;;;222501;1256;24208;-59
2023/04/09 10:33:26;;;;;;;6.40;5.90;;;23.50;49.00;;;;;;222432;1262;24245;-59
2023/04/09 10:38:45;;;;;;;6.80;6.30;;;23.60;48.90;;;;;;222472;1253;22514;-56
2023/04/09 10:43:50;;;;;;;6.90;6.20;;;23.60;49.00;;;;;;222425;1268;22530;-59
2023/04/09 10:49:12;;;;;;;6.00;5.60;;;23.70;48.70;;;;;;222588;1262;25589;-59
2023/04/09 10:54:42;;;;;;;6.50;6.00;;;23.60;49.00;;;;;;222485;1258;25305;-56
2023/04/09 10:59:49;;;;;;;6.90;6.30;;;23.50;49.10;;;;;;222136;1256;22727;-57
2023/04/09 11:05:31;;;;;;;6.80;6.30;;;23.40;49.50;;;;;;222216;1269;25317;-57
2023/04/09 11:10:40;;;;;;;6.20;5.70;;;23.30;49.60;;;;;;222348;1265;22517;-56
2023/04/09 11:15:44;;;;;;;7.10;6.50;;;23.20;49.70;;;;;;222183;1268;22805;-56
2023/04/09 11:20:53;;;;;;;6.90;6.20;;;23.10;50.00;;;;;;222375;1262;22592;-56
2023/04/09 11:25:57;;;;;;;7.30;6.70;;;23.00;50.20;;;;;;222354;1269;22511;-57
2023/04/09 11:31:04;;;;;;;6.70;6.20;;;22.90;50.50;;;;;;222288;1258;24222;-62
2023/04/09 11:36:09;;;;;;;7.70;6.90;;;22.80;50.60;;;;;;222364;1269;22927;-63
2023/04/09 11:41:14;;;;;;;6.80;6.20;;;22.70;50.60;;;;;;222153;1270;22535;-58
2023/04/09 11:46:20;;;;;;;6.50;5.90;;;22.70;50.80;;;;;;222502;1269;22512;-57
2023/04/09 11:51:26;;;;;;;7.00;6.50;;;22.60;51.20;;;;;;222469;1254;24370;-58
2023/04/09 11:56:31;;;;;;;7.20;6.60;;;22.60;51.10;;;;;;222348;1268;22819;-56
2023/04/09 12:01:35;;;;;;;6.50;5.90;;;22.50;51.10;;;;;;222567;1263;24164;-58
2023/04/09 12:06:40;;;;;;;6.80;6.20;;;22.60;51.00;;;;;;222431;1269;22619;-57
2023/04/09 12:11:47;;;;;;;7.30;6.60;;;22.60;51.40;;;;;;222612;1269;24317;-57
2023/04/09 12:16:51;;;;;;;7.50;6.30;;;22.50;51.10;;;;;;222526;1265;22587;-61
2023/04/09 12:21:57;;;;;;;7.10;6.50;;;22.50;51.50;;;;;;222492;1254;22613;-59
2023/04/09 12:27:01;;;;;;;6.60;6.10;;;22.50;51.60;;;;;;222446;1256;25319;-62
2023/04/09 12:32:05;;;;;;;6.70;6.20;;;22.40;51.40;;;;;;222645;1265;22522;-57
2023/04/09 12:37:09;;;;;;;6.30;5.80;;;22.40;51.30;;;;;;222513;1256;23913;-58
2023/04/09 12:42:14;;;;;;;6.70;6.10;;;22.30;51.50;;;;;;222257;1269;24248;-58
2023/04/09 12:47:18;;;;;;;6.50;5.90;;;22.20;51.60;;;;;;222279;1262;25236;-56
2023/04/09 12:52:23;;;;;;;6.80;6.20;;;22.20;51.70;;;;;;222327;1270;24369;-58
2023/04/09 12:57:28;;;;;;;6.70;6.20;;;22.10;51.70;;;;;;222334;1255;22530;-57
2023/04/09 13:02:32;;;;;;;6.60;6.20;;;22.10;51.50;;;;;;222647;1268;22625;-61
2023/04/09 13:07:37;;;;;;;6.70;6.20;;;22.10;51.80;;;;;;222349;1258;22551;-56
2023/04/09 13:12:44;;;;;;;7.00;6.40;;;22.00;51.90;;;;;;222303;1253;22507;-59
2023/04/09 13:17:48;;;;;;;6.50;6.00;;;22.00;52.00;;;;;;222386;1269;22511;-58
2023/04/09 13:22:53;;;;;;;7.70;6.90;;;22.00;51.90;;;;;;222538;1255;22521;-56
2023/04/09 13:27:57;;;;;;;6.30;5.90;;;21.90;51.60;;;;;;222213;1265;22517;-57
2023/04/09 13:33:01;;;;;;;6.40;5.90;;;21.90;52.10;;;;;;222487;1265;22534;-61
2023/04/09 13:38:06;;;;;;;6.90;6.20;;;21.90;52.00;;;;;;222698;1269;25655;-57
2023/04/09 13:43:10;;;;;;;6.50;6.00;;;21.80;52.10;;;;;;222241;1256;22593;-58
2023/04/09 13:48:14;;;;;;;6.80;6.20;;;21.80;52.20;;;;;;222610;1253;24123;-56
2023/04/09 13:53:19;;;;;;;6.30;5.80;;;21.80;52.10;;;;;;222496;1269;22521;-57
2023/04/09 13:58:23;;;;;;;6.30;5.80;;;21.90;51.90;;;;;;222563;1260;24052;-56
2023/04/09 14:03:27;;;;;;;6.40;5.90;;;22.30;51.20;;;;;;222306;1269;25368;-57
2023/04/09 14:08:31;;;;;;;5.80;5.40;;;22.60;50.50;;;;;;222608;1269;25463;-60
2023/04/09 14:13:36;;;;;;;6.40;5.90;;;22.80;50.00;;;;;;222528;1263;24324;-58
2023/04/09 14:18:40;;;;;;;5.90;5.40;;;22.90;49.80;;;;;;222586;1262;22513;-57
2023/04/09 14:23:44;;;;;;;6.50;5.90;;;23.00;49.70;;;;;;222502;1265;24208;-56
2023/04/09 14:28:50;;;;;;;6.20;5.70;;;23.00;49.60;;;;;;222465;1256;22520;-57
2023/04/09 14:33:55;;;;;;;6.10;5.60;;;23.10;50.10;;;;;;222206;1263;22719;-56
2023/04/09 14:39:00;;;;;;;6.30;5.80;;;23.10;49.40;;;;;;222310;1263;23438;-60
2023/04/09 14:44:04;;;;;;;6.30;5.80;;;23.20;49.30;;;;;;222359;1268;22515;-57
2023/04/09 14:49:08;;;;;;;6.80;6.20;;;23.30;49.20;;;;;;222418;1263;22508;-57
2023/04/09 14:54:12;;;;;;;6.00;5.50;;;23.30;49.20;;;;;;222226;1270;22523;-60
2023/04/09 14:59:16;;;;;;;6.40;5.90;;;23.40;49.10;;;;;;222488;1262;22630;-59
2023/04/09 15:04:20;;;;;;;6.00;5.50;;;23.40;49.30;;;;;;222473;1269;24216;-56
2023/04/09 15:09:25;;;;;;;6.40;6.00;;;23.50;48.80;;;;;;222609;1262;23272;-56
2023/04/09 15:14:30;;;;;;;6.00;5.50;;;23.60;48.70;;;;;;222514;1265;25384;-61
2023/04/09 15:19:34;;;;;;;6.30;5.80;;;23.60;49.30;;;;;;222354;1263;24167;-57
2023/04/09 15:24:38;;;;;;;6.60;6.10;;;23.60;48.70;;;;;;221933;1265;22514;-57
2023/04/09 15:29:42;;;;;;;6.30;5.80;;;23.70;48.60;;;;;;222525;1265;22508;-55
2023/04/09 15:34:46;;;;;;;6.30;5.90;;;23.70;48.80;;;;;;222348;1254;22542;-58
2023/04/09 15:39:50;;;;;;;6.50;6.00;;;23.50;49.30;;;;;;222383;1265;25607;-56
2023/04/09 15:44:55;;;;;;;5.90;5.50;;;23.50;49.20;;;;;;222520;1265;22518;-56
2023/04/09 15:49:59;;;;;;;6.10;5.70;;;23.30;49.40;;;;;;222356;1269;26533;-60
2023/04/09 15:55:04;;;;;;;5.70;5.30;;;23.30;49.50;;;;;;222278;1246;24224;-58
2023/04/09 16:00:09;;;;;;;6.40;5.90;;;23.10;49.70;;;;;;222299;1262;24239;-58
2023/04/09 16:05:14;;;;;;;6.00;5.60;;;23.10;49.90;;;;;;222449;1264;22506;-57
2023/04/09 16:10:18;;;;;;;6.50;6.00;;;22.90;50.10;;;;;;222259;1262;22648;-55
2023/04/09 16:15:22;;;;;;;6.00;5.60;;;22.90;50.30;;;;;;222517;1269;22520;-57
2023/04/09 16:20:28;;;;;;;5.90;5.50;;;22.80;50.70;;;;;;222445;1263;22516;-59
2023/04/09 16:25:33;;;;;;;6.10;5.50;;;22.70;50.60;;;;;;222324;1263;22548;-60
2023/04/09 16:30:37;;;;;;;6.10;5.60;;;22.70;50.70;;;;;;222267;1258;25507;-54
2023/04/09 16:35:41;;;;;;;6.10;5.60;;;22.70;50.70;;;;;;222273;1254;22524;-56
2023/04/09 16:40:46;;;;;;;6.30;5.90;;;22.70;50.70;;;;;;222481;1257;24206;-55
2023/04/09 16:45:51;;;;;;;5.60;5.10;;;22.60;50.70;;;;;;222306;1266;22516;-56
2023/04/09 16:50:55;;;;;;;6.30;5.80;;;22.60;50.90;;;;;;222505;1262;22516;-60
2023/04/09 16:55:59;;;;;;;6.00;5.60;;;22.50;50.90;;;;;;222507;1266;22512;-56
2023/04/09 17:01:04;;;;;;;6.20;5.70;;;22.50;51.00;;;;;;222580;1269;24236;-56
2023/04/09 17:06:08;;;;;;;6.20;5.70;;;22.50;51.00;;;;;;222498;1264;24234;-60
2023/04/09 17:11:16;;;;;;;6.30;5.80;;;22.40;51.10;;;;;;222452;1263;22521;-57
2023/04/09 17:16:20;;;;;;;5.90;5.40;;;22.40;51.20;;;;;;222605;1263;22511;-59
2023/04/09 17:21:25;;;;;;;5.80;5.30;;;22.30;51.70;;;;;;222495;1265;22605;-56
2023/04/09 17:26:29;;;;;;;6.70;6.20;;;22.20;51.40;;;;;;222615;1262;25352;-57
2023/04/09 17:31:34;;;;;;;6.50;6.00;;;22.20;51.50;;;;;;222289;1265;22541;-57
2023/04/09 17:36:38;;;;;;;5.80;5.40;;;22.20;51.50;;;;;;222495;1261;22724;-60
2023/04/09 17:41:42;;;;;;;6.20;5.80;;;22.10;52.20;;;;;;222246;1264;22525;-56
2023/04/09 17:46:46;;;;;;;6.30;5.80;;;22.00;51.60;;;;;;222332;1269;24212;-56
2023/04/09 17:51:51;;;;;;;5.90;5.50;;;22.00;51.70;;;;;;222235;1254;24347;-57
2023/04/09 17:56:55;;;;;;;5.80;5.40;;;22.00;51.80;;;;;;222287;1269;22517;-56
2023/04/09 18:02:00;;;;;;;5.90;5.50;;;22.00;51.80;;;;;;222455;1268;22514;-55
2023/04/09 18:07:05;;;;;;;6.20;5.80;;;22.00;51.60;;;;;;222324;1269;22657;-59
2023/04/09 18:12:09;;;;;;;6.60;6.00;;;21.90;52.20;;;;;;222328;1266;22690;-59
2023/04/09 18:17:13;;;;;;;6.20;5.70;;;21.80;51.90;;;;;;222301;1269;22523;-60
2023/04/09 18:22:19;;;;;;;6.00;5.60;;;21.80;51.90;;;;;;222251;1262;23931;-60
2023/04/09 18:27:25;;;;;;;6.20;5.70;;;21.80;52.00;;;;;;221851;1262;173651;-53
2023/04/09 18:32:39;;;;;;;6.20;5.70;;;22.20;51.50;;;;;;222245;1264;22516;-56
2023/04/09 18:37:44;;;;;;;10.90;6.50;;;22.50;50.50;;;;;;222473;1254;24097;-50
2023/04/09 18:42:52;;;;;;;7.90;6.80;;;22.70;50.00;;;;;;222405;1258;22488;-55
2023/04/09 18:47:57;;;;;;;8.70;6.20;;;22.80;50.10;;;;;;222376;1264;24223;-65
2023/04/09 18:53:05;;;;;;;14.80;6.30;;;23.10;49.70;;;;;;222321;1264;22525;-66
2023/04/09 18:58:14;;;;;;;16.20;6.60;;;23.20;49.50;;;;;;222245;1264;25486;-56
2023/04/09 19:03:19;;;;;;;12.50;6.50;;;23.30;49.60;;;;;;222299;1261;22636;-57
2023/04/09 19:08:24;;;;;;;9.20;6.40;;;23.30;49.60;;;;;;225330;1266;22571;-58
2023/04/09 19:13:30;;;;;;;9.30;6.90;;;23.50;49.20;;;;;;222360;1259;22516;-58
2023/04/09 19:18:36;;;;;;;9.60;6.40;;;23.50;49.70;;;;;;222477;1255;22616;-59
2023/04/09 19:23:42;;;;;;;8.60;7.20;;;23.40;49.30;;;;;;222491;1265;23172;-58
2023/04/09 19:28:46;;;;;;;13.40;7.40;;;23.30;49.50;;;;;;222400;1264;25154;-58
2023/04/09 19:33:51;;;;;;;8.30;7.30;;;23.30;49.60;;;;;;222343;1263;22526;-58
2023/04/09 19:38:55;;;;;;;9.60;7.20;;;23.30;50.00;;;;;;222455;1264;22609;-58
2023/04/09 19:44:00;;;;;;;7.80;6.60;;;23.20;49.80;;;;;;222333;1264;25357;-62
2023/04/09 19:49:04;;;;;;;7.30;6.50;;;23.10;50.00;;;;;;222269;1254;24222;-65
2023/04/09 19:54:09;;;;;;;9.90;7.00;;;23.00;50.20;;;;;;222172;1264;24314;-62
2023/04/09 19:59:13;;;;;;;11.80;7.10;;;23.00;50.00;;;;;;222232;1262;22647;-58
2023/04/09 20:04:17;;;;;;;12.20;8.00;;;23.00;51.20;;;;;;222280;1264;22795;-55
2023/04/09 20:09:25;;;;;;;11.80;8.50;;;23.00;51.20;;;;;;222327;1257;22515;-56
2023/04/09 20:14:32;;;;;;;14.20;8.70;;;22.90;51.50;;;;;;222340;1255;23658;-68
2023/04/09 20:19:41;;;;;;;11.20;7.60;;;22.90;52.10;;;;;;222441;1255;22521;-65
2023/04/09 20:24:46;;;;;;;9.80;7.20;;;22.80;52.80;;;;;;222356;1252;22530;-51
2023/04/09 20:29:52;;;;;;;8.90;7.00;;;22.70;52.40;;;;;;222327;1264;22615;-57
2023/04/09 20:34:56;;;;;;;16.70;7.40;;;22.70;52.40;;;;;;222366;1246;22517;-53
2023/04/09 20:40:00;;;;;;;16.50;7.70;;;22.60;53.40;;;;;;222337;1264;22539;-51
2023/04/09 20:45:09;;;;;;;16.50;7.10;;;22.60;53.40;;;;;;222420;1254;22517;-51
2023/04/09 20:50:14;;;;;;;11.50;7.10;;;22.60;54.50;;;;;;222563;1254;24293;-54
2023/04/09 20:55:18;;;;;;;12.30;8.30;;;22.60;54.00;;;;;;222390;1260;24537;-52
2023/04/09 21:00:22;;;;;;;11.70;7.90;;;22.60;54.90;;;;;;222294;1256;22596;-56
2023/04/09 21:05:27;;;;;;;12.90;7.50;;;22.60;56.60;;;;;;222216;1254;22537;-51
2023/04/09 21:10:33;;;;;;;11.30;7.60;;;22.60;56.00;;;;;;222456;1254;25515;-51
2023/04/09 21:15:38;;;;;;;12.50;7.80;;;22.50;55.70;;;;;;222380;1253;25213;-54
2023/04/09 21:20:48;;;;;;;13.10;7.50;;;22.50;55.80;;;;;;222241;1254;24183;-52
2023/04/09 21:25:54;;;;;;;13.60;8.00;;;22.40;55.50;;;;;;222337;1254;25382;-53
2023/04/09 21:30:58;;;;;;;13.20;7.60;;;22.40;55.60;;;;;;222459;1254;22728;-53
2023/04/09 21:36:06;;;;;;;8.90;7.40;;;22.40;56.00;;;;;;222364;1261;22520;-53
2023/04/09 21:41:12;;;;;;;10.80;7.60;;;22.30;55.70;;;;;;222418;1254;22607;-51
2023/04/09 21:46:17;;;;;;;8.70;7.60;;;22.30;55.70;;;;;;222402;1262;22982;-53
2023/04/09 21:51:23;;;;;;;12.30;7.20;;;22.30;55.70;;;;;;222041;1257;22704;-54
2023/04/09 21:56:29;;;;;;;10.70;7.60;;;22.30;55.60;;;;;;222325;1254;22521;-50
2023/04/09 22:01:37;;;;;;;9.20;6.90;;;22.30;55.80;;;;;;222368;1261;26048;-53
2023/04/09 22:06:45;;;;;;;8.60;6.90;;;22.30;55.50;;;;;;222327;1254;24151;-53
2023/04/09 22:11:50;;;;;;;10.40;7.70;;;22.30;55.30;;;;;;222197;1255;22518;-53
2023/04/09 22:16:57;;;;;;;8.00;7.20;;;22.30;55.90;;;;;;222316;1255;25364;-53
2023/04/09 22:22:01;;;;;;;8.20;7.40;;;22.20;55.90;;;;;;222231;1257;25288;-52
2023/04/09 22:27:08;;;;;;;10.00;8.90;;;22.20;56.00;;;;;;222305;1256;23171;-53
2023/04/09 22:32:13;;;;;;;8.10;7.00;;;22.30;55.70;;;;;;222313;1262;25337;-53
2023/04/09 22:37:17;;;;;;;7.40;6.70;;;22.10;56.30;;;;;;222273;1260;25200;-52
2023/04/09 22:42:23;;;;;;;8.00;7.00;;;22.10;56.70;;;;;;222411;1253;25365;-53
2023/04/09 22:47:28;;;;;;;12.00;7.20;;;22.10;56.70;;;;;;222357;1246;24739;-51
2023/04/09 22:52:32;;;;;;;9.40;7.00;;;22.10;56.60;;;;;;222632;1262;24232;-51
2023/04/09 22:57:37;;;;;;;8.60;7.10;;;22.00;56.60;;;;;;222473;1263;22528;-51
2023/04/09 23:02:42;;;;;;;8.00;7.10;;;22.00;56.70;;;;;;222617;1263;24384;-50
2023/04/09 23:07:47;;;;;;;8.00;6.80;;;22.00;56.30;;;;;;222434;1262;22534;-54
2023/04/09 23:12:51;;;;;;;8.00;7.20;;;21.90;56.90;;;;;;222527;1262;23317;-52
2023/04/09 23:17:55;;;;;;;9.30;7.50;;;21.90;56.10;;;;;;222352;1254;22521;-51
2023/04/09 23:22:59;;;;;;;8.10;7.30;;;21.90;56.20;;;;;;222253;1255;22533;-49
2023/04/09 23:28:03;;;;;;;8.30;7.50;;;21.90;56.10;;;;;;222352;1262;24381;-50
2023/04/09 23:33:08;;;;;;;7.90;7.10;;;21.90;56.10;;;;;;222318;1256;22584;-50
2023/04/09 23:38:12;;;;;;;7.90;7.10;;;21.90;56.10;;;;;;222402;1262;25342;-49
2023/04/09 23:43:16;;;;;;;8.00;7.30;;;21.80;56.10;;;;;;222326;1262;22558;-51
2023/04/09 23:48:20;;;;;;;7.70;7.00;;;21.80;56.60;;;;;;222283;1260;23931;-49
2023/04/09 23:53:25;;;;;;;8.30;7.40;;;21.80;56.30;;;;;;222461;1254;25233;-51
2023/04/09 23:58:29;;;;;;;8.40;6.70;;;21.70;56.40;;;;;;222492;1256;25262;-54
